»·PEaware :: AAL1442 KSTL-KDFW

AAL1442 :: KSTL-KDFW

FLIGHT INFORMATION

Flight Status: Arrived
Operator:
American Airlines
More flights by this operator :: More flights under this callsign
Pilot: Drew L. (13237)
Aircraft: BOEING 737-800
(B738)
More flights by this aircraft type
Origin: KSTL Lambert-St Louis Intl
United States
Destination: KDFW Dallas-Ft Worth Intl
United States
More flights between these airports :: More routes between these airports
Route: JAHNY4 MAP RZC FSM KOMMA RRNET BRDJE3
File this flight plan on PilotEdge
Remarks: PBN / A1B1C1D1S1S2 NAV / RNVD1E2A1 DAT / V DOF / 171012 REG / N806SB EET / KZME0033 KZFW0053 RMK / NRP SIMBRIEF
Altitude:
(Current/Filed)
34,000ft
Speed:
(Current/Filed)
471kts
Departed: 11-Oct-17 07:10 PM
Arrived: 11-Oct-17 08:33 PM
Distance/Time
Traveled:
478nm/1:23
Distance/Time
To Go:
Arrived

Flight Plot

Page will automatically refresh every two minutes.


Map Options




Map Legend


Flown Route
Filed Route
Departure Airport
Arrival Airport
Navaid (VOR, NDB)
Fix

Horizontal Profiles

Position Reports

Time Latitude Longitude Heading Altitude Ground
Speed
11-Oct-17 19:06 38.742572 -90.362287 211 612ft 0kts
11-Oct-17 19:07 38.742601 -90.362264 212 612ft 2kts
11-Oct-17 19:08 38.742951 -90.362049 142 611ft 0kts
11-Oct-17 19:09 38.742979 -90.362086 121 611ft 0kts
11-Oct-17 19:10 38.742903 -90.361904 113 611ft 10kts
11-Oct-17 19:11 38.740040 -90.355364 122 611ft 24kts
11-Oct-17 19:12 38.736508 -90.348141 110 612ft 10kts
11-Oct-17 19:13 38.736486 -90.347784 74 612ft 2kts
11-Oct-17 19:14 38.738139 -90.347160 300 612ft 0kts
11-Oct-17 19:15 38.751464 -90.374098 303 875ft 168kts
11-Oct-17 19:16 38.779589 -90.431438 291 2455ft 237kts
11-Oct-17 19:17 38.756863 -90.513423 232 5252ft 268kts
11-Oct-17 19:18 38.698286 -90.574045 219 8345ft 278kts
11-Oct-17 19:19 38.643288 -90.629707 220 10912ft 287kts
11-Oct-17 19:20 38.577555 -90.696662 220 13180ft 314kts
11-Oct-17 19:21 38.508290 -90.767066 220 15756ft 327kts
11-Oct-17 19:22 38.435796 -90.840789 220 18580ft 340kts
11-Oct-17 19:23 38.361455 -90.916436 221 21230ft 351kts
11-Oct-17 19:24 38.283905 -90.994270 218 23606ft 363kts
11-Oct-17 19:25 38.199569 -91.067555 218 25783ft 373kts
11-Oct-17 19:26 38.113910 -91.142312 219 28107ft 372kts
11-Oct-17 19:27 38.030544 -91.215171 220 30387ft 361kts
11-Oct-17 19:28 37.961183 -91.302094 231 32183ft 348kts
11-Oct-17 19:29 37.895396 -91.388628 231 33722ft 343kts
11-Oct-17 19:30 37.828608 -91.476288 231 34252ft 357kts
11-Oct-17 19:31 37.757640 -91.569425 231 34268ft 382kts
11-Oct-17 19:32 37.682402 -91.668215 230 34275ft 407kts
11-Oct-17 19:33 37.604202 -91.770895 230 34242ft 406kts
11-Oct-17 19:34 37.537575 -91.881347 236 34218ft 397kts
11-Oct-17 19:34 37.483366 -91.974470 236 34211ft 396kts
11-Oct-17 19:36 37.407394 -92.104447 236 34209ft 396kts
11-Oct-17 19:36 37.353158 -92.197351 236 34207ft 396kts
11-Oct-17 19:38 37.277465 -92.327222 236 34206ft 396kts
11-Oct-17 19:39 37.212550 -92.438803 236 34204ft 396kts
11-Oct-17 19:39 37.158855 -92.531280 236 34204ft 394kts
11-Oct-17 19:40 37.094480 -92.642232 236 34201ft 396kts
11-Oct-17 19:41 37.030145 -92.753188 236 34211ft 395kts
11-Oct-17 19:42 36.965823 -92.864441 236 34209ft 395kts
11-Oct-17 19:43 36.901540 -92.975828 236 34208ft 395kts
11-Oct-17 19:44 36.838403 -93.085411 236 34210ft 395kts
11-Oct-17 19:45 36.774418 -93.196645 236 34209ft 395kts
11-Oct-17 19:46 36.710684 -93.307626 236 34208ft 395kts
11-Oct-17 19:47 36.647009 -93.418693 236 34206ft 395kts
11-Oct-17 19:48 36.583377 -93.529865 236 34205ft 395kts
11-Oct-17 19:49 36.519899 -93.640952 237 34203ft 394kts
11-Oct-17 19:50 36.457155 -93.750776 236 34213ft 394kts
11-Oct-17 19:51 36.394016 -93.861609 236 34212ft 394kts
11-Oct-17 19:52 36.330809 -93.972765 236 34210ft 394kts
11-Oct-17 19:53 36.267858 -94.083545 235 34205ft 394kts
11-Oct-17 19:54 36.167948 -94.139259 191 34228ft 425kts
11-Oct-17 19:55 36.051847 -94.155729 194 34208ft 420kts
11-Oct-17 19:56 35.936482 -94.175707 194 34205ft 420kts
11-Oct-17 19:57 35.821877 -94.195739 194 34210ft 420kts
11-Oct-17 19:58 35.706690 -94.215880 194 34209ft 420kts
11-Oct-17 19:59 35.591441 -94.236035 194 34207ft 420kts
11-Oct-17 20:00 35.475975 -94.256230 194 34181ft 421kts
11-Oct-17 20:01 35.365284 -94.291632 220 34173ft 401kts
11-Oct-17 20:02 35.284531 -94.383906 224 34184ft 401kts
11-Oct-17 20:03 35.201346 -94.474784 223 34174ft 401kts
11-Oct-17 20:04 35.118416 -94.564884 223 34175ft 401kts
11-Oct-17 20:05 35.035692 -94.654801 222 34175ft 401kts
11-Oct-17 20:06 34.952219 -94.744002 222 34181ft 401kts
11-Oct-17 20:07 34.868988 -94.832349 222 34189ft 402kts
11-Oct-17 20:08 34.784352 -94.920837 221 34187ft 403kts
11-Oct-17 20:09 34.698494 -95.008094 221 34185ft 403kts
11-Oct-17 20:10 34.612729 -95.095352 221 34184ft 403kts
11-Oct-17 20:11 34.526994 -95.182641 221 34182ft 404kts
11-Oct-17 20:12 34.440977 -95.269997 220 34181ft 405kts
11-Oct-17 20:13 34.354446 -95.356935 220 34152ft 405kts
11-Oct-17 20:14 34.268118 -95.443691 220 34151ft 406kts
11-Oct-17 20:15 34.181192 -95.530912 220 34150ft 407kts
11-Oct-17 20:16 34.094342 -95.617551 220 34148ft 407kts
11-Oct-17 20:17 34.007919 -95.703388 219 34154ft 408kts
11-Oct-17 20:18 33.922954 -95.787621 219 33305ft 390kts
11-Oct-17 20:19 33.871454 -95.838712 219 32335ft 403kts
11-Oct-17 20:20 33.814597 -95.895143 219 31302ft 405kts
11-Oct-17 20:21 33.727046 -95.981885 219 29630ft 413kts
11-Oct-17 20:22 33.637683 -96.069755 219 27930ft 421kts
11-Oct-17 20:23 33.546787 -96.159056 219 25908ft 430kts
11-Oct-17 20:24 33.453746 -96.250631 219 23231ft 434kts
11-Oct-17 20:25 33.376855 -96.353180 229 20352ft 403kts
11-Oct-17 20:26 33.307620 -96.449356 229 17323ft 359kts
11-Oct-17 20:27 33.245955 -96.533735 228 14362ft 333kts
11-Oct-17 20:28 33.184801 -96.614577 231 12330ft 319kts
11-Oct-17 20:29 33.154480 -96.708614 252 10681ft 316kts
11-Oct-17 20:30 33.130543 -96.807638 252 8991ft 309kts
11-Oct-17 20:31 33.106595 -96.902572 252 7138ft 287kts
11-Oct-17 20:32 33.084020 -96.990074 247 5295ft 267kts
11-Oct-17 20:33 33.041708 -97.034203 164 4679ft 198kts
11-Oct-17 20:34 32.989828 -97.029127 182 2932ft 181kts
11-Oct-17 20:35 32.943369 -97.029671 181 1158ft 153kts
11-Oct-17 20:36 32.905223 -97.029968 180 614ft 85kts
11-Oct-17 20:37 32.894197 -97.031749 213 613ft 19kts
11-Oct-17 20:38 32.894750 -97.036546 329 613ft 0kts

Navigation Log

Ident Type
Flight plan parsing failed, navigation log unavailable